createdAt,value
2023-10-06T00:01:22.561Z,16.33
2023-10-06T00:04:08.734Z,15.99
2023-10-06T00:06:55.453Z,15.75
2023-10-06T00:09:44.716Z,15.75
2023-10-06T00:12:32.839Z,15.71
2023-10-06T00:15:27.701Z,15.66
2023-10-06T00:18:18.083Z,15.80
2023-10-06T00:21:16.093Z,15.45
2023-10-06T00:24:01.658Z,15.83
2023-10-06T00:26:48.127Z,15.92
2023-10-06T00:29:36.710Z,16.15
2023-10-06T00:32:23.615Z,15.63
2023-10-06T00:35:11.217Z,15.62
2023-10-06T00:37:59.528Z,15.28
2023-10-06T00:40:53.506Z,15.84
2023-10-06T00:43:45.085Z,15.30
2023-10-06T00:46:31.113Z,15.82
2023-10-06T00:49:20.843Z,15.68
2023-10-06T00:52:08.035Z,15.56
2023-10-06T00:54:54.368Z,15.93
2023-10-06T00:57:41.844Z,15.50
2023-10-06T01:00:32.745Z,15.49
2023-10-06T01:03:18.539Z,15.68
2023-10-06T01:06:08.868Z,16.02
2023-10-06T01:09:07.921Z,15.99
2023-10-06T01:11:53.914Z,16.27
2023-10-06T01:14:42.316Z,16.01
2023-10-06T01:17:28.289Z,16.11
2023-10-06T01:20:34.058Z,16.27
2023-10-06T01:23:23.207Z,16.32
2023-10-06T01:26:09.474Z,16.28
2023-10-06T01:28:55.355Z,16.46
2023-10-06T01:31:43.128Z,16.15
2023-10-06T01:34:29.013Z,16.26
2023-10-06T01:37:17.162Z,16.07
2023-10-06T01:40:09.290Z,16.30
2023-10-06T01:42:58.292Z,16.33
2023-10-06T01:45:46.888Z,16.33
2023-10-06T01:48:41.907Z,16.35
2023-10-06T01:51:28.397Z,15.97
2023-10-06T01:54:13.981Z,16.08
2023-10-06T01:56:59.476Z,16.26
2023-10-06T01:59:45.445Z,16.29
2023-10-06T02:02:31.431Z,16.56
2023-10-06T02:05:17.399Z,16.76
2023-10-06T02:08:03.496Z,16.73
2023-10-06T02:10:49.467Z,16.89
2023-10-06T02:13:39.244Z,17.10
2023-10-06T02:16:27.762Z,17.35
2023-10-06T02:19:19.884Z,17.06
2023-10-06T02:22:08.018Z,17.44
2023-10-06T02:24:56.182Z,17.32
2023-10-06T02:27:51.642Z,17.49
2023-10-06T02:30:45.532Z,17.45
2023-10-06T02:33:32.341Z,16.99
2023-10-06T02:36:24.633Z,17.53
2023-10-06T02:39:11.859Z,17.36
2023-10-06T02:42:02.320Z,17.66
2023-10-06T02:44:48.328Z,17.67
2023-10-06T02:47:34.392Z,17.37
2023-10-06T02:50:25.433Z,17.69
2023-10-06T02:53:22.557Z,17.02
2023-10-06T02:56:10.357Z,17.49
2023-10-06T02:59:00.409Z,17.90
2023-10-06T03:01:52.464Z,17.75
2023-10-06T03:04:40.647Z,17.83
2023-10-06T03:07:26.470Z,18.13
2023-10-06T03:10:12.780Z,18.00
2023-10-06T03:12:58.628Z,17.83
2023-10-06T03:15:49.550Z,17.84
2023-10-06T03:18:36.306Z,17.88
2023-10-06T03:21:23.454Z,17.99
2023-10-06T03:24:17.381Z,18.02
2023-10-06T03:27:12.602Z,18.02
2023-10-06T03:30:12.245Z,17.62
2023-10-06T03:32:59.765Z,17.86
2023-10-06T03:35:49.882Z,17.76
2023-10-06T03:38:37.285Z,17.81
2023-10-06T03:41:32.625Z,17.91
2023-10-06T03:44:26.814Z,17.85
2023-10-06T03:47:16.709Z,17.61
2023-10-06T03:50:02.950Z,17.94
2023-10-06T03:52:49.204Z,17.60
2023-10-06T03:55:40.603Z,16.95
2023-10-06T03:58:29.529Z,17.16
2023-10-06T04:01:21.293Z,17.58
2023-10-06T04:04:08.633Z,17.28
2023-10-06T04:06:58.025Z,17.40
2023-10-06T04:09:50.489Z,17.48
2023-10-06T04:12:36.227Z,17.55
2023-10-06T04:15:21.866Z,17.53
2023-10-06T04:18:11.869Z,17.18
2023-10-06T04:20:57.635Z,17.62
2023-10-06T04:23:43.421Z,17.90
2023-10-06T04:26:29.267Z,16.73
2023-10-06T04:29:15.160Z,17.39
2023-10-06T04:32:01.992Z,17.44
2023-10-06T04:34:49.865Z,17.31
2023-10-06T04:37:38.077Z,17.29
2023-10-06T04:40:25.061Z,17.26
2023-10-06T04:43:14.632Z,17.74
2023-10-06T04:46:00.551Z,17.42
2023-10-06T04:48:46.098Z,17.39
2023-10-06T04:51:31.879Z,17.13
2023-10-06T04:54:17.615Z,17.38
2023-10-06T04:57:06.323Z,17.23
2023-10-06T04:59:54.488Z,17.50
2023-10-06T05:02:44.943Z,17.22
2023-10-06T05:05:35.135Z,17.46
2023-10-06T05:08:20.727Z,17.52
2023-10-06T05:11:09.654Z,17.98
2023-10-06T05:13:58.697Z,17.84
2023-10-06T05:16:44.446Z,17.87
2023-10-06T05:19:30.594Z,17.68
2023-10-06T05:22:16.265Z,17.18
2023-10-06T05:25:05.720Z,17.34
2023-10-06T05:27:51.916Z,16.99
2023-10-06T05:30:39.569Z,17.18
2023-10-06T05:33:26.551Z,17.53
2023-10-06T05:36:16.620Z,16.99
2023-10-06T05:39:04.342Z,17.64
2023-10-06T05:41:50.280Z,17.38
2023-10-06T05:44:37.401Z,17.08
2023-10-06T05:47:23.086Z,17.58
2023-10-06T05:50:10.353Z,17.50
2023-10-06T05:53:03.327Z,17.16
2023-10-06T05:55:51.351Z,17.04
2023-10-06T05:58:42.131Z,17.71
2023-10-06T06:01:35.081Z,17.50
2023-10-06T06:04:20.859Z,17.30
2023-10-06T06:07:09.466Z,17.35
2023-10-06T06:09:55.021Z,17.30
2023-10-06T06:12:43.776Z,17.57
2023-10-06T06:15:29.680Z,17.57
2023-10-06T06:18:16.890Z,17.93
2023-10-06T06:21:04.534Z,18.41
2023-10-06T06:23:50.444Z,18.51
2023-10-06T06:26:39.477Z,18.82
2023-10-06T06:29:25.497Z,18.04
2023-10-06T06:32:15.361Z,18.44
2023-10-06T06:35:00.945Z,18.44
2023-10-06T06:38:02.833Z,17.97
2023-10-06T06:40:51.056Z,18.22
2023-10-06T06:43:37.256Z,18.31
2023-10-06T06:46:22.941Z,18.75
2023-10-06T06:49:08.648Z,18.11
2023-10-06T06:51:54.528Z,18.31
2023-10-06T06:54:47.967Z,18.81
2023-10-06T06:57:33.687Z,19.06
2023-10-06T07:00:23.269Z,18.74
2023-10-06T07:03:09.766Z,19.03
2023-10-06T07:05:57.643Z,18.50
2023-10-06T07:08:48.126Z,18.99
2023-10-06T07:11:35.597Z,18.86
2023-10-06T07:14:21.749Z,18.51
2023-10-06T07:17:08.222Z,18.66
2023-10-06T07:19:53.958Z,17.74
2023-10-06T07:22:40.126Z,17.83
2023-10-06T07:25:28.032Z,19.12
2023-10-06T07:28:14.052Z,19.15
2023-10-06T07:31:00.363Z,18.23
2023-10-06T07:33:48.638Z,18.63
2023-10-06T07:36:37.081Z,18.76
2023-10-06T07:39:25.080Z,18.59
2023-10-06T07:42:18.052Z,18.67
2023-10-06T07:45:07.395Z,18.10
2023-10-06T07:47:58.656Z,18.87
2023-10-06T07:50:45.550Z,18.70
2023-10-06T07:53:37.261Z,19.31
2023-10-06T07:56:23.369Z,19.16
2023-10-06T07:59:10.192Z,18.81
2023-10-06T08:01:58.920Z,17.98
2023-10-06T08:04:45.474Z,18.26
2023-10-06T08:07:32.064Z,18.29
2023-10-06T08:10:19.859Z,18.31
2023-10-06T08:13:05.427Z,18.51
2023-10-06T08:15:52.332Z,18.32
2023-10-06T08:18:38.479Z,18.36
2023-10-06T08:21:24.388Z,18.54
2023-10-06T08:24:10.889Z,18.86
2023-10-06T08:26:58.445Z,18.94
2023-10-06T08:29:47.583Z,18.38
2023-10-06T08:32:34.047Z,18.23
2023-10-06T08:35:21.388Z,18.47
2023-10-06T08:38:08.955Z,18.14
2023-10-06T08:40:58.750Z,18.49
2023-10-06T08:43:48.289Z,18.75
2023-10-06T08:46:36.335Z,18.07
2023-10-06T08:49:23.102Z,17.55
2023-10-06T08:52:11.562Z,18.07
2023-10-06T08:55:00.279Z,17.98
2023-10-06T08:57:51.938Z,18.55
2023-10-06T09:00:38.427Z,18.32
2023-10-06T09:03:27.662Z,18.17
2023-10-06T09:06:16.618Z,19.00
2023-10-06T09:09:03.532Z,19.00
2023-10-06T09:11:49.202Z,18.64
2023-10-06T09:14:35.332Z,18.75
2023-10-06T09:17:32.974Z,18.02
2023-10-06T09:20:31.895Z,18.64
2023-10-06T09:23:41.064Z,18.82
2023-10-06T09:26:31.316Z,18.96
2023-10-06T09:29:33.175Z,19.41
2023-10-06T09:32:23.414Z,19.14
2023-10-06T09:35:26.720Z,18.94
2023-10-06T09:38:15.301Z,18.01
2023-10-06T09:41:01.207Z,18.98
2023-10-06T09:43:51.297Z,19.20
2023-10-06T09:46:40.244Z,19.57
2023-10-06T09:49:28.109Z,19.21
2023-10-06T09:52:15.301Z,19.01
2023-10-06T09:55:05.529Z,19.30
2023-10-06T09:57:55.195Z,19.56
2023-10-06T10:00:43.595Z,19.21
2023-10-06T10:03:31.580Z,19.31
2023-10-06T10:06:22.294Z,20.44
2023-10-06T10:09:08.740Z,19.64
2023-10-06T10:12:02.398Z,18.98
2023-10-06T10:15:20.718Z,18.47
2023-10-06T10:18:34.866Z,19.68
2023-10-06T10:21:23.740Z,18.67
2023-10-06T10:27:18.583Z,19.70
2023-10-06T10:30:16.485Z,20.03
2023-10-06T10:33:08.550Z,19.57
2023-10-06T10:36:13.419Z,19.64
2023-10-06T10:39:02.725Z,19.65
2023-10-06T10:41:48.645Z,20.52
2023-10-06T10:44:39.023Z,20.18
2023-10-06T10:47:27.946Z,20.60
2023-10-06T10:50:13.844Z,21.54
2023-10-06T10:53:00.221Z,20.72
2023-10-06T10:55:46.978Z,20.76
2023-10-06T10:58:50.970Z,21.09
2023-10-06T11:01:39.857Z,21.37
2023-10-06T11:04:30.251Z,20.99
2023-10-06T11:07:17.254Z,20.82
2023-10-06T11:10:04.180Z,20.96
2023-10-06T11:12:55.690Z,20.87
2023-10-06T11:15:42.200Z,20.33
2023-10-06T11:18:36.366Z,20.43
2023-10-06T11:21:27.866Z,20.45
2023-10-06T11:24:26.930Z,20.94
2023-10-06T11:27:17.969Z,20.79
2023-10-06T11:30:16.494Z,20.79
2023-10-06T11:33:08.024Z,20.41
2023-10-06T11:35:55.392Z,21.34
2023-10-06T11:38:41.347Z,21.37
2023-10-06T11:41:26.952Z,20.05
2023-10-06T11:44:15.527Z,20.78
2023-10-06T11:47:01.322Z,21.06
2023-10-06T11:50:02.943Z,20.46
2023-10-06T11:52:50.216Z,21.08
2023-10-06T11:55:35.984Z,21.10
2023-10-06T11:58:37.116Z,20.87
2023-10-06T12:01:37.618Z,21.27
2023-10-06T12:04:33.565Z,21.06
2023-10-06T12:07:23.837Z,21.10
2023-10-06T12:10:10.191Z,22.26
2023-10-06T12:12:56.538Z,21.20
2023-10-06T12:15:48.044Z,21.08
2023-10-06T12:18:36.694Z,20.88
2023-10-06T12:21:22.349Z,20.68
2023-10-06T12:24:12.805Z,21.36
2023-10-06T12:26:59.576Z,20.73
2023-10-06T12:29:45.639Z,21.32
2023-10-06T12:32:32.136Z,21.45
2023-10-06T12:35:20.850Z,21.09
2023-10-06T12:38:08.074Z,21.63
2023-10-06T12:40:54.607Z,21.75
2023-10-06T12:43:40.512Z,22.49
2023-10-06T12:46:26.188Z,22.05
2023-10-06T12:49:19.703Z,21.89
2023-10-06T12:52:07.424Z,22.01
2023-10-06T12:54:55.478Z,21.47
2023-10-06T12:57:42.271Z,21.40
2023-10-06T13:00:30.721Z,21.60
2023-10-06T13:03:19.600Z,21.39
2023-10-06T13:06:06.465Z,21.22
2023-10-06T13:08:52.489Z,21.73
2023-10-06T13:11:38.098Z,21.46
2023-10-06T13:14:24.233Z,21.20
2023-10-06T13:17:11.187Z,21.10
2023-10-06T13:19:57.309Z,21.19
2023-10-06T13:22:46.015Z,20.26
2023-10-06T13:25:32.944Z,20.90
2023-10-06T13:28:19.417Z,20.21
2023-10-06T13:31:06.272Z,20.71
2023-10-06T13:33:53.085Z,21.15
2023-10-06T13:36:42.812Z,20.31
2023-10-06T13:39:29.616Z,20.59
2023-10-06T13:42:16.745Z,19.90
2023-10-06T13:45:02.476Z,20.72
2023-10-06T13:47:54.371Z,20.63
2023-10-06T13:50:41.729Z,20.75
2023-10-06T13:53:27.611Z,20.47
2023-10-06T13:56:13.588Z,20.44
2023-10-06T13:59:00.251Z,19.75
2023-10-06T14:01:48.440Z,20.71
2023-10-06T14:04:34.042Z,20.82
2023-10-06T14:07:22.498Z,20.38
2023-10-06T14:10:14.200Z,20.34
2023-10-06T14:13:19.099Z,20.86
2023-10-06T14:16:10.915Z,20.90
2023-10-06T14:18:57.823Z,20.51
2023-10-06T14:21:43.433Z,20.94
2023-10-06T14:24:35.750Z,20.88
2023-10-06T14:27:21.839Z,20.84
2023-10-06T14:30:10.398Z,20.60
2023-10-06T14:33:11.148Z,20.51
2023-10-06T14:36:00.322Z,20.05
2023-10-06T14:38:48.468Z,20.19
2023-10-06T14:41:52.872Z,21.08
2023-10-06T14:45:07.361Z,20.76
2023-10-06T14:47:53.100Z,20.99
2023-10-06T14:50:39.342Z,21.23
2023-10-06T14:53:29.707Z,20.55
2023-10-06T14:56:18.622Z,20.86
2023-10-06T14:59:11.186Z,21.16
2023-10-06T15:01:57.511Z,21.30
2023-10-06T15:04:46.039Z,21.26
2023-10-06T15:07:38.071Z,21.25
2023-10-06T15:10:23.832Z,21.19
2023-10-06T15:13:14.303Z,21.34
2023-10-06T15:16:02.150Z,21.37
2023-10-06T15:18:49.005Z,20.98
2023-10-06T15:21:40.470Z,20.97
2023-10-06T15:24:26.522Z,21.37
2023-10-06T15:27:14.590Z,21.13
2023-10-06T15:30:00.468Z,21.50
2023-10-06T15:32:46.225Z,21.21
2023-10-06T15:35:37.250Z,21.21
2023-10-06T15:38:23.049Z,20.94
2023-10-06T15:41:11.900Z,21.30
2023-10-06T15:44:05.161Z,21.08
2023-10-06T15:46:58.455Z,21.44
2023-10-06T15:49:45.075Z,21.07
2023-10-06T15:52:30.859Z,21.66
2023-10-06T15:55:17.204Z,21.51
2023-10-06T15:58:05.512Z,21.11
2023-10-06T16:00:52.123Z,20.75
2023-10-06T16:03:39.907Z,21.16
2023-10-06T16:06:27.283Z,20.70
2023-10-06T16:09:17.817Z,21.13
2023-10-06T16:15:10.001Z,20.84
2023-10-06T16:17:56.486Z,20.39
2023-10-06T16:20:44.943Z,20.88
2023-10-06T16:23:30.925Z,20.47
2023-10-06T16:26:17.347Z,20.14
2023-10-06T16:29:04.791Z,20.78
2023-10-06T16:31:51.931Z,20.48
2023-10-06T16:34:38.067Z,21.15
2023-10-06T16:37:25.276Z,20.51
2023-10-06T16:40:14.019Z,20.24
2023-10-06T16:43:03.026Z,20.34
2023-10-06T16:45:48.585Z,20.55
2023-10-06T16:48:39.434Z,20.09
2023-10-06T16:51:25.277Z,20.19
2023-10-06T16:54:11.614Z,20.23
2023-10-06T16:56:57.359Z,20.65
2023-10-06T16:59:43.575Z,20.31
2023-10-06T17:02:30.437Z,20.71
2023-10-06T17:05:16.136Z,20.50
2023-10-06T17:08:06.060Z,20.20
2023-10-06T17:10:51.605Z,20.41
2023-10-06T17:13:39.678Z,20.50
2023-10-06T17:16:30.165Z,19.75
2023-10-06T17:19:17.607Z,20.32
2023-10-06T17:22:03.604Z,20.00
2023-10-06T17:24:53.168Z,20.07
2023-10-06T17:27:38.706Z,20.63
2023-10-06T17:30:24.587Z,20.32
2023-10-06T17:33:11.054Z,20.15
2023-10-06T17:35:58.168Z,20.29
2023-10-06T17:38:44.589Z,20.36
2023-10-06T17:41:30.379Z,20.14
2023-10-06T17:44:16.510Z,19.77
2023-10-06T17:47:02.424Z,19.63
2023-10-06T17:49:48.764Z,19.82
2023-10-06T17:52:34.648Z,20.50
2023-10-06T17:55:20.907Z,19.82
2023-10-06T17:58:09.235Z,19.78
2023-10-06T18:00:55.240Z,19.92
2023-10-06T18:03:41.450Z,20.05
2023-10-06T18:06:27.474Z,19.97
2023-10-06T18:09:14.866Z,19.39
2023-10-06T18:12:15.025Z,19.84
2023-10-06T18:15:08.316Z,19.42
2023-10-06T18:17:53.979Z,18.98
2023-10-06T18:20:41.588Z,18.87
2023-10-06T18:23:27.655Z,19.07
2023-10-06T18:26:14.848Z,19.08
2023-10-06T18:29:03.403Z,18.98
2023-10-06T18:31:49.117Z,19.23
2023-10-06T18:34:35.421Z,18.33
2023-10-06T18:37:21.640Z,18.53
2023-10-06T18:40:14.615Z,18.92
2023-10-06T18:43:06.248Z,18.63
2023-10-06T18:45:56.503Z,19.18
2023-10-06T18:48:43.516Z,18.88
2023-10-06T18:51:29.300Z,18.59
2023-10-06T18:54:17.313Z,18.90
2023-10-06T18:57:03.108Z,18.27
2023-10-06T18:59:50.417Z,18.49
2023-10-06T19:02:37.752Z,18.65
2023-10-06T19:05:24.742Z,18.78
2023-10-06T19:08:12.582Z,18.90
2023-10-06T19:10:58.555Z,18.87
2023-10-06T19:13:44.995Z,18.87
2023-10-06T19:16:30.994Z,18.88
2023-10-06T19:19:17.083Z,19.20
2023-10-06T19:22:04.433Z,19.12
2023-10-06T19:24:50.215Z,19.38
2023-10-06T19:27:35.816Z,19.44
2023-10-06T19:30:21.406Z,18.88
2023-10-06T19:33:07.259Z,19.34
2023-10-06T19:36:01.147Z,19.00
2023-10-06T19:38:54.558Z,19.57
2023-10-06T19:41:44.503Z,19.64
2023-10-06T19:44:35.714Z,19.59
2023-10-06T19:47:26.556Z,18.99
2023-10-06T19:50:15.990Z,19.28
2023-10-06T19:53:01.818Z,18.68
2023-10-06T19:55:50.148Z,18.85
2023-10-06T19:58:36.319Z,19.24
2023-10-06T20:01:25.315Z,18.62
2023-10-06T20:04:11.857Z,19.63
2023-10-06T20:06:57.514Z,18.96
2023-10-06T20:09:45.580Z,18.92
2023-10-06T20:12:33.546Z,19.30
2023-10-06T20:15:22.306Z,19.21
2023-10-06T20:18:08.276Z,19.35
2023-10-06T20:20:54.558Z,19.37
2023-10-06T20:23:41.131Z,19.47
2023-10-06T20:26:28.704Z,19.62
2023-10-06T20:29:14.632Z,19.87
2023-10-06T20:32:00.114Z,19.68
2023-10-06T20:34:51.387Z,19.27
2023-10-06T20:37:39.284Z,19.36
2023-10-06T20:40:32.208Z,19.19
2023-10-06T20:43:20.912Z,19.65
2023-10-06T20:46:10.028Z,19.86
2023-10-06T20:48:55.558Z,19.65
2023-10-06T20:51:49.534Z,19.71
2023-10-06T20:54:35.464Z,19.54
2023-10-06T20:57:23.521Z,20.09
2023-10-06T21:00:11.126Z,19.92
2023-10-06T21:02:56.855Z,19.61
2023-10-06T21:05:45.387Z,19.02
2023-10-06T21:08:32.048Z,19.14
2023-10-06T21:11:17.749Z,19.83
2023-10-06T21:14:05.922Z,19.50
2023-10-06T21:16:51.586Z,19.84
2023-10-06T21:19:37.705Z,19.61
2023-10-06T21:22:28.269Z,19.28
2023-10-06T21:25:15.197Z,18.86
2023-10-06T21:28:01.775Z,19.11
2023-10-06T21:30:50.369Z,19.30
2023-10-06T21:33:36.109Z,19.47
2023-10-06T21:36:21.759Z,19.61
2023-10-06T21:39:08.046Z,19.26
2023-10-06T21:41:54.485Z,19.60
2023-10-06T21:44:42.579Z,19.07
2023-10-06T21:47:28.721Z,19.21
2023-10-06T21:50:16.101Z,19.33
2023-10-06T21:53:02.328Z,19.63
2023-10-06T21:55:48.235Z,19.69
2023-10-06T21:58:37.704Z,19.26
2023-10-06T22:01:24.590Z,18.91
2023-10-06T22:04:12.638Z,19.10
2023-10-06T22:06:58.924Z,19.23
2023-10-06T22:09:47.219Z,19.76
2023-10-06T22:12:34.139Z,19.55
2023-10-06T22:15:21.066Z,19.54
2023-10-06T22:18:08.471Z,20.17
2023-10-06T22:20:56.792Z,19.55
2023-10-06T22:23:43.538Z,19.60
2023-10-06T22:26:52.643Z,19.44
2023-10-06T22:29:38.598Z,19.80
2023-10-06T22:32:25.628Z,19.66
2023-10-06T22:35:11.447Z,19.77
2023-10-06T22:37:57.074Z,20.13
2023-10-06T22:40:43.149Z,20.18
2023-10-06T22:43:30.462Z,20.00
2023-10-06T22:46:16.577Z,20.09
2023-10-06T22:49:04.999Z,19.91
2023-10-06T22:51:53.064Z,20.07
2023-10-06T22:54:38.699Z,20.09
2023-10-06T22:57:24.338Z,19.79
2023-10-06T23:00:11.305Z,19.76
2023-10-06T23:02:58.060Z,20.00
2023-10-06T23:05:45.028Z,20.16
2023-10-06T23:08:31.167Z,19.86
2023-10-06T23:11:17.250Z,20.29
2023-10-06T23:14:05.180Z,20.31
2023-10-06T23:16:51.228Z,20.59
2023-10-06T23:19:37.175Z,20.39
2023-10-06T23:22:24.737Z,20.13
2023-10-06T23:25:13.455Z,20.72
2023-10-06T23:27:59.367Z,20.57
2023-10-06T23:30:48.639Z,20.64
2023-10-06T23:33:35.109Z,20.77
2023-10-06T23:36:20.968Z,20.63
2023-10-06T23:39:09.985Z,20.40
2023-10-06T23:41:55.768Z,20.36
2023-10-06T23:44:49.195Z,20.76
2023-10-06T23:47:36.440Z,20.87
2023-10-06T23:50:23.182Z,21.02
2023-10-06T23:53:12.320Z,20.78
2023-10-06T23:56:02.055Z,20.62
2023-10-06T23:58:48.445Z,20.91
